Latest Weather Observations for Loxton

IDS60801

Issued at 7:02 am CDT Saturday 28 November 2020 (issued every 10 minutes, with the page automatically refreshed every 10 minutes)

About weather observations | Map of weather stations | Latest weather observations for SA | Other Formats
Station Details ID: 024024 Name: LOXTON RESEARCH CENTRE Lat: -34.44 Lon: 140.60 Height: 30.1 m
Data from the previous 72 hours. | See also: Recent months at Loxton
Date/Time
CDT
Temp
°C
App
Temp
°C
Dew
Point
°C
Rel
Hum
%
Delta-T
°C
Wind Press
QNH
hPa
Press
MSL
hPa
Rain since
9am
mm
Dir  Spd
km/h
Gust
km/h
Spd
kts
Gust
kts
28/07:00am 22.5 21.4 10.1 45 6.8 SE 6 9 3 5 1002.7 1002.6 0.0
28/06:30am 19.2 18.6 11.6 61 4.2 SE 6 7 3 4 1002.9 1002.8 0.0
28/06:00am 19.3 19.6 10.9 58 4.6 CALM 0 6 0 3 1003.0 1002.9 0.0
28/05:30am 20.3 19.5 9.5 50 5.8 SSE 4 9 2 5 1002.9 1002.8 0.0
28/05:00am 22.3 19.0 8.1 40 7.5 SSW 15 20 8 11 1003.1 1003.0 0.0
28/04:30am 23.3 19.3 6.7 34 8.6 SSW 17 24 9 13 1002.9 1002.8 0.0
28/04:00am 24.4 20.4 5.0 28 9.8 SSW 15 20 8 11 1003.2 1003.1 0.0
28/03:30am 24.9 20.2 5.3 28 10.0 SSW 19 33 10 18 1003.2 1003.1 0.0
28/03:25am 24.5 20.6 5.2 28 9.7 SSW 15 33 8 18 1003.0 1002.9 0.0
28/03:00am 19.4 19.4 12.3 63 4.0 S 4 9 2 5 1003.3 1003.2 0.0
28/02:30am 20.3 21.0 12.1 59 4.6 CALM 0 0 0 0 1003.7 1003.6 0.0
28/02:00am 20.6 21.1 11.6 56 5.0 CALM 0 0 0 0 1004.2 1004.1 0.0
28/01:30am 22.1 21.0 8.6 42 7.2 SSE 4 9 2 5 1004.5 1004.4 0.0
28/01:00am 21.6 21.0 12.2 55 5.3 SE 7 9 4 5 1004.9 1004.8 0.0
28/12:30am 22.8 22.0 11.8 50 6.2 ESE 7 9 4 5 1005.0 1004.9 0.0
28/12:00am 22.9 22.9 13.6 55 5.4 SE 6 7 3 4 1005.3 1005.2 0.0
 
Date/Time
CDT
Temp
°C
App
Temp
°C
Dew
Point
°C
Rel
Hum
%
Delta-T
°C
Wind Press
QNH
hPa
Press
MSL
hPa
Rain since
9am
mm
Dir  Spd
km/h
Gust
km/h
Spd
kts
Gust
kts
27/11:30pm 23.6 24.4 12.4 49 6.4 CALM 0 4 0 2 1005.6 1005.5 0.0
27/11:00pm 24.5 24.4 13.2 49 6.6 SE 6 7 3 4 1005.7 1005.6 0.0
27/10:30pm 25.2 24.4 13.0 46 7.1 SE 9 13 5 7 1005.8 1005.7 0.0
27/10:00pm 27.1 25.4 11.1 36 9.1 SSE 11 13 6 7 1005.8 1005.7 0.0
27/09:30pm 28.7 27.2 11.8 35 9.8 SSE 11 11 6 6 1005.7 1005.6 0.0
27/09:00pm 29.5 28.8 13.2 36 9.7 SSE 9 11 5 6 1005.7 1005.6 0.0
27/08:30pm 32.5 32.3 11.8 28 12.2 SSE 4 7 2 4 1005.5 1005.4 0.0
27/08:00pm 37.2 33.5 4.2 13 17.7 SSW 13 20 7 11 1005.4 1005.3 0.0
27/07:30pm 37.5 33.7 6.0 14 17.4 SSW 15 19 8 10 1005.4 1005.3 0.0
27/07:00pm 38.9 35.4 3.4 11 18.9 NNW 11 17 6 9 1005.0 1004.9 0.0
27/06:30pm 39.5 35.6 3.3 11 19.4 NNW 13 20 7 11 1004.9 1004.8 0.0
27/06:00pm 41.3 36.5 0.4 8 21.2 NNW 15 20 8 11 1004.8 1004.7 0.0
27/05:30pm 41.5 36.6 1.9 9 21.0 NW 17 26 9 14 1005.0 1004.9 0.0
27/05:00pm 41.9 36.6 1.7 8 21.2 NNW 19 30 10 16 1005.2 1005.1 0.0
27/04:30pm 42.2 37.8 2.6 9 21.3 NNW 15 28 8 15 1005.5 1005.4 0.0
27/04:00pm 41.6 35.9 0.8 8 21.2 NNW 20 33 11 18 1005.9 1005.8 0.0
27/03:30pm 41.6 35.0 -0.7 7 21.6 NNW 24 41 13 22 1006.4 1006.3 0.0
27/03:00pm 41.0 35.4 1.3 8 20.8 NNW 20 33 11 18 1006.7 1006.6 0.0
27/02:30pm 41.5 35.5 0.9 8 21.2 NW 22 37 12 20 1007.2 1007.2 0.0
27/02:00pm 41.3 36.4 4.3 10 20.2 NNW 19 30 10 16 1007.7 1007.7 0.0
27/01:30pm 40.9 35.8 4.0 10 20.1 NNW 20 32 11 17 1008.3 1008.3 0.0
27/01:00pm 39.7 34.3 4.5 11 19.2 NNW 22 33 12 18 1008.8 1008.8 0.0
27/12:30pm 39.2 34.5 5.9 13 18.5 NNW 20 37 11 20 1009.3 1009.3 0.0
27/12:00pm 38.1 32.4 4.8 13 18.1 NNW 24 37 13 20 1009.7 1009.7 0.0
27/11:30am 36.7 32.2 5.9 15 16.9 N 19 28 10 15 1010.2 1010.2 0.0
27/11:00am 35.2 30.4 5.4 15 16.1 NNW 20 32 11 17 1010.5 1010.5 0.0
27/10:30am 33.4 29.6 7.6 20 14.3 NNW 17 24 9 13 1010.8 1010.8 0.0
27/10:00am 31.4 27.2 8.1 23 12.9 N 20 28 11 15 1011.0 1011.0 0.0
27/09:30am 28.8 25.9 9.7 30 10.7 N 15 24 8 13 1011.3 1011.3 0.0
27/09:00am 26.3 24.2 11.1 38 8.6 N 13 20 7 11 1011.5 1011.5 0.0
27/08:30am 23.4 22.8 12.4 50 6.3 NNW 7 9 4 5 1011.5 1011.5 0.0
27/08:00am 21.6 21.5 12.2 55 5.3 W 4 7 2 4 1011.5 1011.5 0.0
27/07:30am 19.6 19.1 11.9 61 4.3 WNW 6 9 3 5 1011.4 1011.4 0.0
27/07:00am 18.0 16.4 11.6 66 3.5 WNW 11 15 6 8 1011.3 1011.3 0.0
27/06:30am 17.3 14.8 11.2 67 3.3 WNW 15 17 8 9 1011.1 1011.1 0.0
27/06:00am 17.2 15.5 11.1 67 3.3 WNW 11 13 6 7 1010.7 1010.7 0.0
27/05:30am 17.3 16.2 10.8 65 3.5 WNW 7 11 4 6 1010.5 1010.5 0.0
27/05:00am 16.9 16.4 10.7 67 3.3 NW 4 11 2 6 1010.3 1010.3 0.0
27/04:30am 17.6 16.5 10.5 63 3.8 W 7 11 4 6 1010.5 1010.5 0.0
27/04:00am 15.9 16.2 11.0 72 2.6 CALM 0 0 0 0 1010.3 1010.3 0.0
27/03:30am 16.1 15.6 10.7 70 2.9 SSW 4 6 2 3 1010.2 1010.2 0.0
27/03:00am 16.5 16.6 10.3 67 3.3 CALM 0 0 0 0 1010.6 1010.6 0.0
27/02:30am 17.5 17.9 11.4 67 3.3 CALM 0 0 0 0 1010.7 1010.7 0.0
27/02:00am 18.2 18.7 11.6 65 3.6 CALM 0 6 0 3 1011.1 1011.1 0.0
27/01:30am 19.2 19.6 11.4 60 4.3 CALM 0 0 0 0 1011.4 1011.4 0.0
27/01:00am 20.4 19.9 10.9 54 5.2 SSE 4 6 2 3 1011.8 1011.8 0.0
27/12:30am 22.5 20.6 9.1 42 7.2 S 9 13 5 7 1012.2 1012.2 0.0
27/12:00am 21.8 20.5 9.1 44 6.8 SSE 6 9 3 5 1012.1 1012.1 0.0
 
Date/Time
CDT
Temp
°C
App
Temp
°C
Dew
Point
°C
Rel
Hum
%
Delta-T
°C
Wind Press
QNH
hPa
Press
MSL
hPa
Rain since
9am
mm
Dir  Spd
km/h
Gust
km/h
Spd
kts
Gust
kts
26/11:30pm 24.8 22.0 6.8 31 9.4 SSE 11 13 6 7 1012.6 1012.6 0.0
26/11:00pm 26.6 23.1 5.4 25 10.9 SSW 13 17 7 9 1012.9 1012.8 0.0
26/10:30pm 26.9 23.9 5.9 26 10.9 SSW 11 15 6 8 1012.8 1012.7 0.0
26/10:00pm 27.5 24.1 6.1 25 11.2 SSW 13 17 7 9 1012.5 1012.5 0.0
26/09:30pm 27.8 24.9 6.6 26 11.2 S 11 15 6 8 1012.2 1012.2 0.0
26/09:00pm 29.1 26.2 6.6 24 12.0 SSW 11 15 6 8 1011.9 1011.9 0.0
26/08:30pm 29.7 27.0 7.3 24 12.1 SSW 11 13 6 7 1011.7 1011.7 0.0
26/08:00pm 30.1 28.0 8.3 25 12.0 S 9 13 5 7 1011.3 1011.3 0.0
26/07:30pm 31.4 29.3 8.1 23 12.9 SSW 9 13 5 7 1011.1 1011.1 0.0
26/07:00pm 33.7 30.8 6.6 18 14.8 S 11 17 6 9 1010.8 1010.8 0.0
26/06:30pm 34.4 30.8 5.0 16 15.7 S 13 19 7 10 1010.6 1010.6 0.0
26/06:00pm 34.9 31.8 5.4 16 15.9 S 11 19 6 10 1010.5 1010.5 0.0
26/05:30pm 34.0 30.7 6.2 17 15.1 SSW 13 19 7 10 1010.5 1010.5 0.0
26/05:00pm 34.9 30.9 5.1 15 16.0 SW 15 20 8 11 1010.3 1010.3 0.0
26/04:30pm 34.5 31.0 5.3 16 15.7 SSW 13 24 7 13 1010.3 1010.3 0.0
26/04:00pm 35.3 32.4 4.9 15 16.3 SW 9 17 5 9 1010.4 1010.4 0.0
26/03:30pm 35.2 32.5 5.7 16 16.0 WSW 9 20 5 11 1010.6 1010.6 0.0
26/03:00pm 34.1 31.4 5.8 17 15.3 SSW 9 22 5 12 1010.9 1010.9 0.0
26/02:30pm 33.7 31.1 5.9 17 15.0 SSW 9 17 5 9 1011.2 1011.2 0.0
26/02:00pm 32.7 29.6 5.5 18 14.5 S 11 19 6 10 1011.8 1011.8 0.0
26/01:30pm 32.1 29.4 5.6 19 14.1 S 9 17 5 9 1012.0 1012.0 0.0
26/01:00pm 32.3 29.6 5.7 19 14.2 SE 9 15 5 8 1012.4 1012.4 0.0
26/12:30pm 31.1 27.6 5.3 19 13.6 SSW 13 17 7 9 1012.9 1012.8 0.0
26/12:00pm 30.1 26.7 5.9 21 12.8 SSW 13 20 7 11 1013.2 1013.1 0.0
26/11:30am 28.9 25.5 5.9 23 12.1 SSE 13 20 7 11 1013.5 1013.4 0.0
26/11:00am 27.9 24.8 7.1 26 11.1 SW 13 20 7 11 1013.5 1013.4 0.0
26/10:30am 26.0 23.1 6.7 29 10.1 SSW 11 17 6 9 1013.6 1013.5 0.0
26/10:00am 25.5 22.2 8.1 33 9.3 S 15 20 8 11 1013.6 1013.5 0.0
26/09:30am 23.9 20.7 8.6 37 8.2 SSW 15 20 8 11 1013.8 1013.7 0.0
26/09:00am 23.2 19.8 9.1 40 7.6 S 17 24 9 13 1013.7 1013.6 0.0
26/08:30am 21.8 18.4 9.1 44 6.8 S 17 22 9 12 1013.4 1013.3 0.0
26/08:00am 21.1 17.6 8.8 45 6.5 S 17 24 9 13 1013.1 1013.0 0.0
26/07:30am 19.2 15.8 9.1 52 5.3 SSW 17 22 9 12 1012.8 1012.7 0.0
26/07:00am 18.0 14.9 8.7 54 4.8 SSW 15 20 8 11 1012.4 1012.4 0.0
26/06:30am 16.8 13.8 7.7 55 4.6 SSW 13 19 7 10 1012.0 1012.0 0.0
26/06:00am 15.9 12.6 6.5 53 4.6 SW 13 17 7 9 1011.7 1011.7 0.0
26/05:30am 15.8 13.3 6.6 54 4.5 WSW 9 9 5 5 1011.1 1011.1 0.0
26/05:00am 13.9 12.6 9.2 73 2.4 W 6 7 3 4 1010.6 1010.6 0.0
26/04:30am 14.6 14.0 9.1 69 2.8 WSW 2 6 1 3 1010.1 1010.1 0.0
26/04:00am 15.2 15.4 10.7 74 2.4 CALM 0 0 0 0 1009.9 1009.9 0.0
26/03:30am 16.5 15.7 9.6 63 3.6 WSW 4 7 2 4 1009.9 1009.9 0.0
26/03:00am 15.8 15.6 9.0 64 3.5 CALM 0 0 0 0 1009.9 1009.9 0.0
26/02:30am 17.1 16.8 8.5 57 4.4 CALM 0 0 0 0 1009.9 1009.9 0.0
26/02:00am 17.5 15.5 8.6 56 4.6 SE 9 11 5 6 1010.0 1010.0 0.0
26/01:30am 19.7 17.4 7.4 45 6.3 SSE 9 11 5 6 1010.3 1010.3 0.0
26/01:00am 21.1 18.5 6.0 37 7.6 S 9 13 5 7 1010.5 1010.5 0.0
26/12:30am 22.3 19.7 5.9 34 8.3 S 9 11 5 6 1010.5 1010.5 0.0
26/12:00am 23.4 20.8 5.9 32 8.9 S 9 11 5 6 1010.4 1010.4 0.0
 
Date/Time
CDT
Temp
°C
App
Temp
°C
Dew
Point
°C
Rel
Hum
%
Delta-T
°C
Wind Press
QNH
hPa
Press
MSL
hPa
Rain since
9am
mm
Dir  Spd
km/h
Gust
km/h
Spd
kts
Gust
kts
25/11:30pm 24.3 21.3 6.2 31 9.3 S 11 15 6 8 1010.1 1010.1 0.0
25/11:00pm 25.2 22.3 6.3 29 9.8 S 11 13 6 7 1010.1 1010.1 0.0
25/10:30pm 25.7 23.0 7.4 31 9.7 S 11 13 6 7 1009.9 1009.9 0.0
25/10:00pm 27.4 24.1 6.6 26 11.0 SSW 13 15 7 8 1009.7 1009.7 0.0
25/09:30pm 24.0 24.3 14.6 55 5.6 SSW 6 7 3 4 1009.2 1009.2 0.0
25/09:00pm 27.3 25.3 10.2 34 9.6 SSW 11 17 6 9 1008.9 1008.9 0.0
25/08:30pm 25.0 26.9 15.8 56 5.6 CALM 0 0 0 0 1008.5 1008.5 0.0
25/08:00pm 28.1 30.2 17.1 51 6.9 ENE 2 6 1 3 1008.0 1008.0 0.0
25/07:30pm 31.1 32.5 17.7 44 8.6 E 7 9 4 5 1007.8 1007.8 0.0
25/07:00pm 33.4 32.5 10.7 25 13.2 E 6 9 3 5 1007.7 1007.7 0.0
25/06:30pm 34.7 33.2 8.3 19 14.9 WSW 6 15 3 8 1007.5 1007.5 0.0
25/06:00pm 34.6 32.8 7.2 18 15.2 SSW 6 9 3 5 1007.5 1007.5 0.0
25/05:30pm 34.4 30.4 5.1 16 15.7 W 15 28 8 15 1007.6 1007.6 0.0
25/05:00pm 34.2 29.6 5.4 16 15.5 WNW 19 24 10 13 1007.7 1007.7 0.0
25/04:30pm 33.7 29.2 6.0 18 15.0 SW 19 32 10 17 1007.8 1007.8 0.0
25/04:00pm 33.5 29.7 5.9 18 14.9 SW 15 24 8 13 1008.0 1008.0 0.0
25/03:30pm 33.0 30.7 7.5 20 14.1 NW 9 20 5 11 1008.2 1008.2 0.0
25/03:00pm 33.2 29.9 6.3 18 14.6 W 13 24 7 13 1008.8 1008.8 0.0
25/02:30pm 32.3 29.4 8.0 22 13.5 W 13 22 7 12 1009.3 1009.3 0.0
25/02:00pm 31.8 27.4 6.7 21 13.6 WNW 19 30 10 16 1009.7 1009.7 0.0
25/01:30pm 32.2 28.5 6.5 20 13.9 WNW 15 26 8 14 1010.0 1010.0 0.0
25/01:00pm 30.3 27.9 7.0 23 12.6 NNW 9 24 5 13 1010.4 1010.4 0.0
25/12:30pm 29.5 25.3 7.6 25 11.9 NNW 19 28 10 15 1010.9 1010.9 0.0
25/12:00pm 29.5 26.1 7.6 25 11.9 NNW 15 24 8 13 1011.4 1011.4 0.0
25/11:30am 27.7 24.4 9.5 32 10.1 N 17 26 9 14 1011.7 1011.7 0.0
25/11:00am 27.1 25.3 9.3 32 9.8 NNW 9 17 5 9 1012.3 1012.3 0.0
25/10:30am 25.8 23.8 10.1 37 8.7 N 11 20 6 11 1012.8 1012.7 0.0
25/10:00am 24.7 21.4 9.5 38 8.3 NNE 17 26 9 14 1013.0 1012.9 0.0
25/09:30am 23.1 20.2 9.7 42 7.3 N 15 19 8 10 1013.3 1013.2 0.0
25/09:00am 22.3 21.0 11.4 50 6.1 N 9 15 5 8 1013.4 1013.3 0.0
25/08:30am 19.9 18.4 8.4 47 6.0 N 6 11 3 6 1013.4 1013.3 0.0
25/08:00am 18.6 16.4 7.8 49 5.5 NE 9 11 5 6 1013.3 1013.2 0.0
25/07:30am 17.2 16.7 7.9 54 4.7 CALM 0 4 0 2 1013.1 1013.0 0.0

Other formats

Comma delimited format used in spreadsheet applications
http://www.bom.gov.au/fwo/IDS60801/IDS60801.94682.axf

JavaScript Object Notation format (JSON) in row-major order
http://www.bom.gov.au/fwo/IDS60801/IDS60801.94682.json

Data quality

Most of these data are generated automatically and are frequently updated. Quality checks on data are not normally performed. It is possible for incorrect values to appear. Refer to information at About Latest Weather Observations and please check the disclaimer before using these data.